createdAt,value
2018-03-30T00:01:03.274Z,31.17
2018-03-30T00:03:30.638Z,26.90
2018-03-30T00:05:57.787Z,26.60
2018-03-30T00:08:28.899Z,28.00
2018-03-30T00:10:56.134Z,35.57
2018-03-30T00:13:23.428Z,40.07
2018-03-30T00:15:50.623Z,35.53
2018-03-30T00:18:19.097Z,33.50
2018-03-30T00:20:46.258Z,29.40
2018-03-30T00:23:14.354Z,30.60
2018-03-30T00:25:41.563Z,30.00
2018-03-30T00:28:14.362Z,30.67
2018-03-30T00:30:41.571Z,31.03
2018-03-30T00:33:12.457Z,28.43
2018-03-30T00:35:40.056Z,28.77
2018-03-30T00:38:24.457Z,29.77
2018-03-30T00:40:52.838Z,29.30
2018-03-30T00:43:20.080Z,24.23
2018-03-30T00:45:47.374Z,24.07
2018-03-30T00:48:14.839Z,23.83
2018-03-30T00:50:42.107Z,23.03
2018-03-30T00:56:13.465Z,25.48
2018-03-30T00:58:42.449Z,21.23
2018-03-30T01:01:09.699Z,20.33
2018-03-30T01:03:36.910Z,20.07
2018-03-30T01:06:04.223Z,21.20
2018-03-30T01:08:31.562Z,21.80
2018-03-30T01:10:58.729Z,20.27
2018-03-30T01:13:25.861Z,21.50
2018-03-30T01:15:53.184Z,20.53
2018-03-30T01:18:21.680Z,20.43
2018-03-30T01:20:49.423Z,20.30
2018-03-30T01:23:17.453Z,19.97
2018-03-30T01:25:45.406Z,20.73
2018-03-30T01:28:16.544Z,20.50
2018-03-30T01:30:43.602Z,20.43
2018-03-30T01:33:10.850Z,26.20
2018-03-30T01:35:38.166Z,25.63
2018-03-30T01:38:09.810Z,24.33
2018-03-30T01:40:37.058Z,25.40
2018-03-30T01:43:04.129Z,25.43
2018-03-30T01:45:31.364Z,28.53
2018-03-30T01:47:59.521Z,27.20
2018-03-30T01:50:26.738Z,26.33
2018-03-30T01:52:54.242Z,26.53
2018-03-30T01:55:22.258Z,27.33
2018-03-30T01:57:49.602Z,31.10
2018-03-30T02:00:16.693Z,34.07
2018-03-30T02:02:43.966Z,35.47
2018-03-30T02:05:11.054Z,35.57
2018-03-30T02:07:38.230Z,40.10
2018-03-30T02:10:09.986Z,46.47
2018-03-30T02:12:37.404Z,63.77
2018-03-30T02:15:04.866Z,58.67
2018-03-30T02:17:31.965Z,44.10
2018-03-30T02:20:05.557Z,50.50
2018-03-30T02:22:32.876Z,42.77
2018-03-30T02:25:00.065Z,49.73
2018-03-30T02:27:27.269Z,44.57
2018-03-30T02:29:57.653Z,46.07
2018-03-30T02:32:24.785Z,40.77
2018-03-30T02:34:52.087Z,38.93
2018-03-30T02:37:19.236Z,42.73
2018-03-30T02:39:49.793Z,40.40
2018-03-30T02:42:17.058Z,43.67
2018-03-30T02:44:44.162Z,37.37
2018-03-30T02:47:11.364Z,39.00
2018-03-30T02:49:40.821Z,36.70
2018-03-30T02:52:07.891Z,37.20
2018-03-30T02:54:35.746Z,34.77
2018-03-30T02:57:03.795Z,37.67
2018-03-30T02:59:32.114Z,37.47
2018-03-30T03:01:59.258Z,37.63
2018-03-30T03:04:26.406Z,38.93
2018-03-30T03:06:53.594Z,38.33
2018-03-30T03:09:27.174Z,40.20
2018-03-30T03:11:54.422Z,33.63
2018-03-30T03:14:21.710Z,33.50
2018-03-30T03:16:48.986Z,33.70
2018-03-30T03:19:20.546Z,35.07
2018-03-30T03:21:47.627Z,36.40
2018-03-30T03:24:14.821Z,35.90
2018-03-30T03:26:41.947Z,35.20
2018-03-30T03:29:12.860Z,45.83
2018-03-30T03:31:39.875Z,40.47
2018-03-30T03:34:07.036Z,40.30
2018-03-30T03:36:34.247Z,42.60
2018-03-30T03:39:02.569Z,47.97
2018-03-30T03:41:30.193Z,41.07
2018-03-30T03:43:57.981Z,44.80
2018-03-30T03:46:25.188Z,41.60
2018-03-30T03:48:56.884Z,41.70
2018-03-30T03:51:24.106Z,45.53
2018-03-30T03:53:51.331Z,40.40
2018-03-30T03:56:18.508Z,40.07
2018-03-30T03:58:46.869Z,39.03
2018-03-30T04:01:14.113Z,40.00
2018-03-30T04:03:41.357Z,39.60
2018-03-30T04:06:08.497Z,38.30
2018-03-30T04:08:36.976Z,36.77
2018-03-30T04:11:04.281Z,38.87
2018-03-30T04:13:31.509Z,38.10
2018-03-30T04:15:58.772Z,36.97
2018-03-30T04:18:29.970Z,38.83
2018-03-30T04:20:57.149Z,38.60
2018-03-30T04:23:24.262Z,35.97
2018-03-30T04:25:51.539Z,35.77
2018-03-30T04:28:28.714Z,37.10
2018-03-30T04:30:55.753Z,38.37
2018-03-30T04:33:23.023Z,39.13
2018-03-30T04:35:50.266Z,41.83
2018-03-30T04:38:24.153Z,39.27
2018-03-30T04:40:51.482Z,38.73
2018-03-30T04:43:18.593Z,38.63
2018-03-30T04:45:45.713Z,39.97
2018-03-30T04:48:16.031Z,37.53
2018-03-30T04:50:43.302Z,39.33
2018-03-30T04:53:10.454Z,39.00
2018-03-30T04:55:37.654Z,38.33
2018-03-30T04:58:05.042Z,39.57
2018-03-30T05:00:32.238Z,42.83
2018-03-30T05:02:59.390Z,41.63
2018-03-30T05:05:26.614Z,39.30
2018-03-30T05:07:54.942Z,38.50
2018-03-30T05:10:22.150Z,36.87
2018-03-30T05:12:49.410Z,35.87
2018-03-30T05:15:16.610Z,39.87
2018-03-30T05:17:47.613Z,40.23
2018-03-30T05:20:14.911Z,38.10
2018-03-30T05:25:30.918Z,42.88
2018-03-30T05:28:01.942Z,35.87
2018-03-30T05:30:29.398Z,34.73
2018-03-30T05:32:56.813Z,35.13
2018-03-30T05:35:24.158Z,34.23
2018-03-30T05:37:51.526Z,34.57
2018-03-30T05:40:18.759Z,33.47
2018-03-30T05:42:46.058Z,33.43
2018-03-30T05:45:13.286Z,31.50
2018-03-30T05:47:41.598Z,33.87
2018-03-30T05:50:08.814Z,32.67
2018-03-30T05:52:36.124Z,32.20
2018-03-30T05:55:03.358Z,30.40
2018-03-30T05:57:30.648Z,31.73
2018-03-30T05:59:58.376Z,29.87
2018-03-30T06:02:25.789Z,30.57
2018-03-30T06:04:52.970Z,28.40
2018-03-30T06:07:21.105Z,31.07
2018-03-30T06:09:48.415Z,31.20
2018-03-30T06:12:15.661Z,29.63
2018-03-30T06:14:43.033Z,29.13
2018-03-30T06:17:10.361Z,28.77
2018-03-30T06:19:37.665Z,32.37
2018-03-30T06:22:04.849Z,30.43
2018-03-30T06:24:32.166Z,31.93
2018-03-30T06:27:00.007Z,30.77
2018-03-30T06:29:27.284Z,32.00
2018-03-30T06:31:55.359Z,30.40
2018-03-30T06:34:22.588Z,32.00
2018-03-30T06:36:49.792Z,31.47
2018-03-30T06:39:18.198Z,32.93
2018-03-30T06:41:45.522Z,30.30
2018-03-30T06:44:12.841Z,35.80
2018-03-30T06:46:40.031Z,29.57
2018-03-30T06:49:08.537Z,33.87
2018-03-30T06:51:36.641Z,33.33
2018-03-30T06:54:03.798Z,29.93
2018-03-30T06:56:30.919Z,30.17
2018-03-30T06:59:00.158Z,31.17
2018-03-30T07:01:27.355Z,32.87
2018-03-30T07:03:54.581Z,32.43
2018-03-30T07:06:21.799Z,28.77
2018-03-30T07:08:52.190Z,31.37
2018-03-30T07:11:19.464Z,32.33
2018-03-30T07:13:46.761Z,34.07
2018-03-30T07:16:14.053Z,31.53
2018-03-30T07:21:33.330Z,33.85
2018-03-30T07:24:00.587Z,30.77
2018-03-30T07:26:27.709Z,30.03
2018-03-30T07:28:56.006Z,29.50
2018-03-30T07:31:23.137Z,29.17
2018-03-30T07:33:50.328Z,27.77
2018-03-30T07:36:17.434Z,28.33
2018-03-30T07:38:48.161Z,26.83
2018-03-30T07:41:15.250Z,28.37
2018-03-30T07:43:42.485Z,28.13
2018-03-30T07:46:09.739Z,33.63
2018-03-30T07:48:38.033Z,29.17
2018-03-30T07:51:05.324Z,27.60
2018-03-30T07:53:32.700Z,26.50
2018-03-30T07:56:00.104Z,26.27
2018-03-30T07:58:31.190Z,25.97
2018-03-30T08:00:58.514Z,26.77
2018-03-30T08:03:25.910Z,29.30
2018-03-30T08:05:53.225Z,26.70
2018-03-30T08:08:23.465Z,25.83
2018-03-30T08:10:50.796Z,27.23
2018-03-30T08:13:18.081Z,24.50
2018-03-30T08:15:45.786Z,26.33
2018-03-30T08:18:14.434Z,25.40
2018-03-30T08:20:41.478Z,22.97
2018-03-30T08:23:08.946Z,25.10
2018-03-30T08:25:36.305Z,22.83
2018-03-30T08:28:04.643Z,22.33
2018-03-30T08:30:31.870Z,22.30
2018-03-30T08:32:59.096Z,22.73
2018-03-30T08:35:26.313Z,24.67
2018-03-30T08:37:59.210Z,23.70
2018-03-30T08:40:27.278Z,22.20
2018-03-30T08:42:55.313Z,23.10
2018-03-30T08:45:22.622Z,23.13
2018-03-30T08:47:53.420Z,22.20
2018-03-30T08:50:20.560Z,21.93
2018-03-30T08:52:47.838Z,21.20
2018-03-30T08:55:15.345Z,23.00
2018-03-30T08:57:42.665Z,20.60
2018-03-30T09:00:09.980Z,23.40
2018-03-30T09:02:37.081Z,23.50
2018-03-30T09:05:05.054Z,25.00
2018-03-30T09:07:37.839Z,25.03
2018-03-30T09:10:04.921Z,26.23
2018-03-30T09:12:32.255Z,24.30
2018-03-30T09:14:59.529Z,23.93
2018-03-30T09:17:26.898Z,25.40
2018-03-30T09:19:54.152Z,23.30
2018-03-30T09:22:21.904Z,22.97
2018-03-30T09:24:49.186Z,22.83
2018-03-30T09:27:16.646Z,23.60
2018-03-30T09:29:50.332Z,23.47
2018-03-30T09:32:17.654Z,23.07
2018-03-30T09:34:44.995Z,23.10
2018-03-30T09:37:13.258Z,21.77
2018-03-30T09:39:40.453Z,21.23
2018-03-30T09:42:07.721Z,21.10
2018-03-30T09:44:34.898Z,23.67
2018-03-30T09:47:02.369Z,23.87
2018-03-30T09:49:29.554Z,22.10
2018-03-30T09:51:56.926Z,20.17
2018-03-30T09:54:24.194Z,21.87
2018-03-30T09:56:56.141Z,23.00
2018-03-30T09:59:23.390Z,21.17
2018-03-30T10:01:50.709Z,19.90
2018-03-30T10:04:22.908Z,19.53
2018-03-30T10:06:53.370Z,19.60
2018-03-30T10:09:20.649Z,22.47
2018-03-30T10:11:47.780Z,20.50
2018-03-30T10:14:14.994Z,20.83
2018-03-30T10:16:48.338Z,20.00
2018-03-30T10:19:15.666Z,19.63
2018-03-30T10:21:42.916Z,21.93
2018-03-30T10:24:10.268Z,21.27
2018-03-30T10:26:38.554Z,20.60
2018-03-30T10:29:05.585Z,21.63
2018-03-30T10:31:32.773Z,21.93
2018-03-30T10:33:59.925Z,21.23
2018-03-30T10:36:30.845Z,20.53
2018-03-30T10:38:58.046Z,21.67
2018-03-30T10:41:25.292Z,22.63
2018-03-30T10:43:52.548Z,23.90
2018-03-30T10:46:19.721Z,22.47
2018-03-30T10:48:50.550Z,20.60
2018-03-30T10:51:17.763Z,19.93
2018-03-30T10:53:45.178Z,19.60
2018-03-30T10:56:12.369Z,19.20
2018-03-30T10:58:43.344Z,19.30
2018-03-30T11:01:10.701Z,21.70
2018-03-30T11:03:38.029Z,21.90
2018-03-30T11:06:05.377Z,22.03
2018-03-30T11:08:36.509Z,21.23
2018-03-30T11:11:03.682Z,22.13
2018-03-30T11:13:31.069Z,21.07
2018-03-30T11:15:59.035Z,19.23
2018-03-30T11:18:36.662Z,20.13
2018-03-30T11:21:04.010Z,18.73
2018-03-30T11:23:31.285Z,19.00
2018-03-30T11:25:59.040Z,17.60
2018-03-30T11:28:32.200Z,18.33
2018-03-30T11:30:59.422Z,18.73
2018-03-30T11:33:26.579Z,20.93
2018-03-30T11:35:53.906Z,19.70
2018-03-30T11:38:24.738Z,20.70
2018-03-30T11:40:51.882Z,20.33
2018-03-30T11:43:19.171Z,20.23
2018-03-30T11:45:46.573Z,19.83
2018-03-30T11:48:24.074Z,19.37
2018-03-30T11:50:51.693Z,20.07
2018-03-30T11:53:19.012Z,18.57
2018-03-30T11:55:46.158Z,18.63
2018-03-30T11:58:18.741Z,20.80
2018-03-30T12:00:46.753Z,20.83
2018-03-30T12:03:14.013Z,20.13
2018-03-30T12:05:41.298Z,21.23
2018-03-30T12:08:11.576Z,19.90
2018-03-30T12:10:38.889Z,19.83
2018-03-30T12:13:06.180Z,21.93
2018-03-30T12:15:33.522Z,19.07
2018-03-30T12:18:03.733Z,21.90
2018-03-30T12:20:30.981Z,20.87
2018-03-30T12:22:58.325Z,19.60
2018-03-30T12:25:25.473Z,20.97
2018-03-30T12:27:59.702Z,20.90
2018-03-30T12:30:26.873Z,23.17
2018-03-30T12:32:54.238Z,19.50
2018-03-30T12:35:21.522Z,22.57
2018-03-30T12:37:49.143Z,21.97
2018-03-30T12:40:16.390Z,21.53
2018-03-30T12:42:43.770Z,21.87
2018-03-30T12:45:11.930Z,24.33
2018-03-30T12:47:39.066Z,23.13
2018-03-30T12:50:06.267Z,22.93
2018-03-30T12:52:33.547Z,21.70
2018-03-30T12:55:02.246Z,21.80
2018-03-30T12:57:43.568Z,20.90
2018-03-30T13:00:10.845Z,22.67
2018-03-30T13:02:38.101Z,23.00
2018-03-30T13:05:05.374Z,21.90
2018-03-30T13:07:32.926Z,21.87
2018-03-30T13:10:00.913Z,20.70
2018-03-30T13:12:28.214Z,21.13
2018-03-30T13:14:55.461Z,22.90
2018-03-30T13:17:23.204Z,20.30
2018-03-30T13:19:50.388Z,23.80
2018-03-30T13:22:18.442Z,23.17
2018-03-30T13:24:45.566Z,21.70
2018-03-30T13:27:24.877Z,21.37
2018-03-30T13:29:52.501Z,22.83
2018-03-30T13:32:20.596Z,22.23
2018-03-30T13:34:48.118Z,21.63
2018-03-30T13:37:19.263Z,20.03
2018-03-30T13:39:46.577Z,22.47
2018-03-30T13:42:13.710Z,23.40
2018-03-30T13:44:40.992Z,22.97
2018-03-30T13:47:10.215Z,21.43
2018-03-30T13:49:37.363Z,20.93
2018-03-30T13:52:24.987Z,21.63
2018-03-30T13:54:52.092Z,22.57
2018-03-30T13:57:44.011Z,22.80
2018-03-30T14:00:19.346Z,21.53
2018-03-30T14:02:51.189Z,23.77
2018-03-30T14:05:29.132Z,21.73
2018-03-30T14:08:15.050Z,22.00
2018-03-30T14:11:01.028Z,22.20
2018-03-30T14:13:28.133Z,21.17
2018-03-30T14:15:57.085Z,21.97
2018-03-30T14:18:33.291Z,22.37
2018-03-30T14:21:06.237Z,20.80
2018-03-30T14:23:34.810Z,19.67
2018-03-30T14:29:29.829Z,22.40
2018-03-30T14:32:10.626Z,19.27
2018-03-30T14:34:38.861Z,23.80
2018-03-30T14:37:16.507Z,21.33
2018-03-30T14:39:49.312Z,21.53
2018-03-30T14:42:18.018Z,22.30
2018-03-30T14:44:47.962Z,20.33
2018-03-30T14:47:34.759Z,19.67
2018-03-30T14:50:01.885Z,20.37
2018-03-30T14:52:38.491Z,19.43
2018-03-30T14:58:22.332Z,23.80
2018-03-30T15:00:49.404Z,21.87
2018-03-30T15:03:39.110Z,23.40
2018-03-30T15:06:28.886Z,23.73
2018-03-30T15:12:39.787Z,27.13
2018-03-30T15:18:25.396Z,30.25
2018-03-30T15:23:52.336Z,26.98
2018-03-30T15:26:34.006Z,26.70
2018-03-30T15:29:14.293Z,24.53
2018-03-30T15:35:00.650Z,29.08
2018-03-30T15:37:28.994Z,26.20
2018-03-30T15:40:07.269Z,26.23
2018-03-30T15:42:37.868Z,28.70
2018-03-30T15:47:57.182Z,30.25
2018-03-30T15:50:24.311Z,27.70
2018-03-30T15:52:51.623Z,31.87
2018-03-30T15:55:18.805Z,32.63
2018-03-30T15:57:46.873Z,28.50
2018-03-30T16:00:15.642Z,30.87
2018-03-30T16:02:42.913Z,33.57
2018-03-30T16:05:10.110Z,30.93
2018-03-30T16:07:37.438Z,33.30
2018-03-30T16:10:13.082Z,34.43
2018-03-30T16:12:42.947Z,32.67
2018-03-30T16:15:12.115Z,34.03
2018-03-30T16:17:41.509Z,33.40
2018-03-30T16:20:08.176Z,38.30
2018-03-30T16:22:34.914Z,42.50
2018-03-30T16:25:01.546Z,48.00
2018-03-30T16:27:29.346Z,37.10
2018-03-30T16:29:55.986Z,39.83
2018-03-30T16:32:22.618Z,36.13
2018-03-30T16:34:49.286Z,43.53
2018-03-30T16:37:16.121Z,40.10
2018-03-30T16:39:42.967Z,32.67
2018-03-30T16:42:10.231Z,33.20
2018-03-30T16:44:36.836Z,34.17
2018-03-30T16:47:07.455Z,34.53
2018-03-30T16:49:34.016Z,36.23
2018-03-30T16:52:00.557Z,34.73
2018-03-30T16:54:27.026Z,40.60
2018-03-30T16:56:54.706Z,48.53
2018-03-30T16:59:21.966Z,37.17
2018-03-30T17:01:48.463Z,34.00
2018-03-30T17:04:15.506Z,32.07
2018-03-30T17:06:41.999Z,28.63
2018-03-30T17:09:08.470Z,28.63
2018-03-30T17:11:35.024Z,31.80
2018-03-30T17:14:01.511Z,35.23
2018-03-30T17:16:28.268Z,29.67
2018-03-30T17:18:55.462Z,27.40
2018-03-30T17:21:22.019Z,29.57
2018-03-30T17:23:48.578Z,30.83
2018-03-30T17:26:15.266Z,32.40
2018-03-30T17:28:41.721Z,27.57
2018-03-30T17:31:08.229Z,27.30
2018-03-30T17:33:34.873Z,35.47
2018-03-30T17:36:02.520Z,31.57
2018-03-30T17:38:29.766Z,43.30
2018-03-30T17:40:56.268Z,43.17
2018-03-30T17:43:22.800Z,36.03
2018-03-30T17:45:49.572Z,36.30
2018-03-30T17:48:16.102Z,33.37
2018-03-30T17:50:42.551Z,32.40
2018-03-30T17:53:09.063Z,39.67
2018-03-30T17:55:35.804Z,38.13
2018-03-30T17:58:02.336Z,38.80
2018-03-30T18:00:28.855Z,38.17
2018-03-30T18:02:55.458Z,36.03
2018-03-30T18:05:22.025Z,33.80
2018-03-30T18:07:48.491Z,27.73
2018-03-30T18:10:15.082Z,35.70
2018-03-30T18:12:42.370Z,25.50
2018-03-30T18:15:10.070Z,25.83
2018-03-30T18:17:44.410Z,33.87
2018-03-30T18:20:11.201Z,49.23
2018-03-30T18:22:37.668Z,34.40
2018-03-30T18:25:04.301Z,42.53
2018-03-30T18:27:34.568Z,91.57
2018-03-30T18:30:01.127Z,92.67
2018-03-30T18:32:28.436Z,77.13
2018-03-30T18:34:54.864Z,82.83
2018-03-30T18:37:24.938Z,56.23
2018-03-30T18:39:51.397Z,54.97
2018-03-30T18:42:17.997Z,49.20
2018-03-30T18:44:44.589Z,47.97
2018-03-30T18:47:12.378Z,41.30
2018-03-30T18:49:38.921Z,36.67
2018-03-30T18:52:06.085Z,34.53
2018-03-30T18:54:32.868Z,35.30
2018-03-30T18:57:00.475Z,35.27
2018-03-30T18:59:27.398Z,30.20
2018-03-30T19:01:53.906Z,30.90
2018-03-30T19:04:20.909Z,30.87
2018-03-30T19:06:50.544Z,28.57
2018-03-30T19:09:17.037Z,30.30
2018-03-30T19:11:43.695Z,29.97
2018-03-30T19:14:10.889Z,28.97
2018-03-30T19:16:40.654Z,26.87
2018-03-30T19:19:07.624Z,27.57
2018-03-30T19:21:34.083Z,28.63
2018-03-30T19:24:00.623Z,27.57
2018-03-30T19:26:31.954Z,29.80
2018-03-30T19:28:59.245Z,29.67
2018-03-30T19:31:25.810Z,29.30
2018-03-30T19:33:52.383Z,29.00
2018-03-30T19:36:19.035Z,29.10
2018-03-30T19:38:45.500Z,31.00
2018-03-30T19:41:11.995Z,32.67
2018-03-30T19:43:38.495Z,29.53
2018-03-30T19:46:05.514Z,25.70
2018-03-30T19:48:32.063Z,25.60
2018-03-30T19:50:58.618Z,24.70
2018-03-30T19:53:25.043Z,24.50
2018-03-30T19:55:52.790Z,24.87
2018-03-30T19:58:19.246Z,23.47
2018-03-30T20:00:45.780Z,27.87
2018-03-30T20:03:13.115Z,32.93
2018-03-30T20:05:39.784Z,33.63
2018-03-30T20:08:06.281Z,28.47
2018-03-30T20:10:32.809Z,40.13
2018-03-30T20:13:00.126Z,47.17
2018-03-30T20:15:26.770Z,31.97
2018-03-30T20:17:53.290Z,30.03
2018-03-30T20:20:19.782Z,25.63
2018-03-30T20:22:46.363Z,24.13
2018-03-30T20:25:13.010Z,24.87
2018-03-30T20:27:39.788Z,24.33
2018-03-30T20:30:06.314Z,25.57
2018-03-30T20:32:32.900Z,25.30
2018-03-30T20:34:59.456Z,26.70
2018-03-30T20:37:25.986Z,23.10
2018-03-30T20:39:52.574Z,25.27
2018-03-30T20:42:19.095Z,24.67
2018-03-30T20:44:45.486Z,22.83
2018-03-30T20:47:12.198Z,23.10
2018-03-30T20:49:38.662Z,23.60
2018-03-30T20:52:05.299Z,22.33
2018-03-30T20:54:31.847Z,22.63
2018-03-30T20:56:59.507Z,23.30
2018-03-30T20:59:26.275Z,23.17
2018-03-30T21:01:52.849Z,23.97
2018-03-30T21:04:19.489Z,22.57
2018-03-30T21:06:47.466Z,22.83
2018-03-30T21:09:14.006Z,21.57
2018-03-30T21:11:40.499Z,23.73
2018-03-30T21:14:07.138Z,22.87
2018-03-30T21:16:36.912Z,22.50
2018-03-30T21:19:03.773Z,20.73
2018-03-30T21:21:31.146Z,22.17
2018-03-30T21:23:58.179Z,21.67
2018-03-30T21:26:25.970Z,22.00
2018-03-30T21:28:52.984Z,22.53
2018-03-30T21:31:19.866Z,22.80
2018-03-30T21:33:47.168Z,22.20
2018-03-30T21:36:15.292Z,22.33
2018-03-30T21:38:42.487Z,20.80
2018-03-30T21:41:09.211Z,19.97
2018-03-30T21:43:43.552Z,19.70
2018-03-30T21:46:10.493Z,20.17
2018-03-30T21:48:40.000Z,20.47
2018-03-30T21:51:06.954Z,20.87
2018-03-30T21:53:35.517Z,21.23
2018-03-30T21:56:03.650Z,20.47
2018-03-30T21:58:31.087Z,20.80
2018-03-30T22:01:00.370Z,21.37
2018-03-30T22:03:26.819Z,20.13
2018-03-30T22:05:54.564Z,21.23
2018-03-30T22:08:21.375Z,21.03
2018-03-30T22:10:48.999Z,21.07
2018-03-30T22:13:15.538Z,21.33
2018-03-30T22:15:47.160Z,21.93
2018-03-30T22:18:13.715Z,19.60
2018-03-30T22:20:40.228Z,20.63
2018-03-30T22:23:07.397Z,22.13
2018-03-30T22:25:47.287Z,22.83
2018-03-30T22:28:13.805Z,24.73
2018-03-30T22:30:40.236Z,21.60
2018-03-30T22:33:06.976Z,20.97
2018-03-30T22:35:37.427Z,20.40
2018-03-30T22:38:04.003Z,21.87
2018-03-30T22:40:30.490Z,24.33
2018-03-30T22:42:57.045Z,23.93
2018-03-30T22:45:23.498Z,21.50
2018-03-30T22:47:50.070Z,22.27
2018-03-30T22:50:16.628Z,20.77
2018-03-30T22:52:43.057Z,22.17
2018-03-30T22:55:13.089Z,21.00
2018-03-30T22:57:39.725Z,19.93
2018-03-30T23:00:06.644Z,24.20
2018-03-30T23:02:33.904Z,19.47
2018-03-30T23:05:03.905Z,20.37
2018-03-30T23:07:30.579Z,20.87
2018-03-30T23:09:57.169Z,22.30
2018-03-30T23:12:24.058Z,26.87
2018-03-30T23:14:56.281Z,27.03
2018-03-30T23:17:22.899Z,26.87
2018-03-30T23:19:49.506Z,28.03
2018-03-30T23:22:16.154Z,30.77
2018-03-30T23:24:50.186Z,29.27
2018-03-30T23:27:16.831Z,28.00
2018-03-30T23:29:43.471Z,28.73
2018-03-30T23:32:10.148Z,22.77
2018-03-30T23:34:36.730Z,23.83
2018-03-30T23:37:03.349Z,23.20
2018-03-30T23:39:30.015Z,21.03
2018-03-30T23:41:56.648Z,21.87
2018-03-30T23:44:23.291Z,20.13
2018-03-30T23:46:53.473Z,20.63
2018-03-30T23:49:20.394Z,22.87
2018-03-30T23:51:47.068Z,21.23
2018-03-30T23:54:13.909Z,21.07
2018-03-30T23:56:46.618Z,23.93
2018-03-30T23:59:13.298Z,22.60
